sensor_id;sensor_type;location;lat;lon;timestamp;P1;durP1;ratioP1;P2;durP2;ratioP2
48823;SDS011;34640;53.590;10.054;2022-07-09T00:02:08;11.05;;;3.70;;
48823;SDS011;34640;53.590;10.054;2022-07-09T00:04:41;14.63;;;3.47;;
48823;SDS011;34640;53.590;10.054;2022-07-09T00:07:14;13.77;;;3.70;;
48823;SDS011;34640;53.590;10.054;2022-07-09T00:09:51;10.57;;;2.78;;
48823;SDS011;34640;53.590;10.054;2022-07-09T00:12:24;14.43;;;3.55;;
48823;SDS011;34640;53.590;10.054;2022-07-09T00:14:57;13.48;;;3.70;;
48823;SDS011;34640;53.590;10.054;2022-07-09T00:17:32;16.40;;;3.58;;
48823;SDS011;34640;53.590;10.054;2022-07-09T00:20:05;20.58;;;3.60;;
48823;SDS011;34640;53.590;10.054;2022-07-09T00:22:39;10.60;;;3.45;;
48823;SDS011;34640;53.590;10.054;2022-07-09T00:25:12;12.98;;;3.83;;
48823;SDS011;34640;53.590;10.054;2022-07-09T00:27:45;13.95;;;3.70;;
48823;SDS011;34640;53.590;10.054;2022-07-09T00:30:18;14.98;;;3.60;;
48823;SDS011;34640;53.590;10.054;2022-07-09T00:32:53;20.05;;;3.95;;
48823;SDS011;34640;53.590;10.054;2022-07-09T00:35:26;12.65;;;3.42;;
48823;SDS011;34640;53.590;10.054;2022-07-09T00:37:59;11.98;;;3.50;;
48823;SDS011;34640;53.590;10.054;2022-07-09T00:40:31;12.95;;;3.45;;
48823;SDS011;34640;53.590;10.054;2022-07-09T00:43:14;11.93;;;3.55;;
48823;SDS011;34640;53.590;10.054;2022-07-09T00:45:49;13.73;;;3.33;;
48823;SDS011;34640;53.590;10.054;2022-07-09T00:48:23;15.43;;;3.95;;
48823;SDS011;34640;53.590;10.054;2022-07-09T00:50:56;16.65;;;3.50;;
48823;SDS011;34640;53.590;10.054;2022-07-09T00:53:30;14.70;;;4.35;;
48823;SDS011;34640;53.590;10.054;2022-07-09T00:56:03;19.17;;;4.50;;
48823;SDS011;34640;53.590;10.054;2022-07-09T00:58:37;11.00;;;3.55;;
48823;SDS011;34640;53.590;10.054;2022-07-09T01:01:10;18.52;;;3.95;;
48823;SDS011;34640;53.590;10.054;2022-07-09T01:03:45;18.70;;;4.03;;
48823;SDS011;34640;53.590;10.054;2022-07-09T01:06:18;11.70;;;3.83;;
48823;SDS011;34640;53.590;10.054;2022-07-09T01:08:51;14.13;;;4.13;;
48823;SDS011;34640;53.590;10.054;2022-07-09T01:11:24;13.35;;;3.60;;
48823;SDS011;34640;53.590;10.054;2022-07-09T01:13:57;18.23;;;4.13;;
48823;SDS011;34640;53.590;10.054;2022-07-09T01:16:31;12.55;;;3.88;;
48823;SDS011;34640;53.590;10.054;2022-07-09T01:19:06;15.55;;;4.10;;
48823;SDS011;34640;53.590;10.054;2022-07-09T01:21:41;15.93;;;3.78;;
48823;SDS011;34640;53.590;10.054;2022-07-09T01:24:14;21.23;;;4.13;;
48823;SDS011;34640;53.590;10.054;2022-07-09T01:26:47;16.25;;;3.30;;
48823;SDS011;34640;53.590;10.054;2022-07-09T01:29:20;13.85;;;3.75;;
48823;SDS011;34640;53.590;10.054;2022-07-09T01:31:55;14.68;;;3.75;;
48823;SDS011;34640;53.590;10.054;2022-07-09T01:34:28;13.07;;;3.70;;
48823;SDS011;34640;53.590;10.054;2022-07-09T01:37:02;20.60;;;4.80;;
48823;SDS011;34640;53.590;10.054;2022-07-09T01:39:36;14.05;;;3.65;;
48823;SDS011;34640;53.590;10.054;2022-07-09T01:42:21;13.13;;;3.55;;
48823;SDS011;34640;53.590;10.054;2022-07-09T01:44:54;15.05;;;4.05;;
48823;SDS011;34640;53.590;10.054;2022-07-09T01:47:27;18.48;;;3.85;;
48823;SDS011;34640;53.590;10.054;2022-07-09T01:50:00;14.65;;;3.72;;
48823;SDS011;34640;53.590;10.054;2022-07-09T01:52:34;11.05;;;3.53;;
48823;SDS011;34640;53.590;10.054;2022-07-09T01:55:07;15.25;;;3.88;;
48823;SDS011;34640;53.590;10.054;2022-07-09T01:57:41;19.75;;;4.45;;
48823;SDS011;34640;53.590;10.054;2022-07-09T02:00:14;14.52;;;3.90;;
48823;SDS011;34640;53.590;10.054;2022-07-09T02:02:47;13.00;;;3.67;;
48823;SDS011;34640;53.590;10.054;2022-07-09T02:05:21;15.93;;;3.85;;
48823;SDS011;34640;53.590;10.054;2022-07-09T02:07:55;20.23;;;3.85;;
48823;SDS011;34640;53.590;10.054;2022-07-09T02:10:28;20.65;;;4.43;;
48823;SDS011;34640;53.590;10.054;2022-07-09T02:13:01;16.90;;;4.22;;
48823;SDS011;34640;53.590;10.054;2022-07-09T02:15:34;17.58;;;4.03;;
48823;SDS011;34640;53.590;10.054;2022-07-09T02:18:08;18.90;;;4.13;;
48823;SDS011;34640;53.590;10.054;2022-07-09T02:20:41;11.82;;;3.42;;
48823;SDS011;34640;53.590;10.054;2022-07-09T02:23:15;18.75;;;4.20;;
48823;SDS011;34640;53.590;10.054;2022-07-09T02:25:48;24.27;;;4.20;;
48823;SDS011;34640;53.590;10.054;2022-07-09T02:28:22;16.83;;;3.72;;
48823;SDS011;34640;53.590;10.054;2022-07-09T02:30:55;14.70;;;4.45;;
48823;SDS011;34640;53.590;10.054;2022-07-09T02:33:29;10.57;;;3.42;;
48823;SDS011;34640;53.590;10.054;2022-07-09T02:36:03;15.25;;;4.03;;
48823;SDS011;34640;53.590;10.054;2022-07-09T02:38:38;15.82;;;4.07;;
48823;SDS011;34640;53.590;10.054;2022-07-09T02:41:16;18.40;;;4.10;;
48823;SDS011;34640;53.590;10.054;2022-07-09T02:43:49;13.40;;;4.97;;
48823;SDS011;34640;53.590;10.054;2022-07-09T02:46:22;23.10;;;5.47;;
48823;SDS011;34640;53.590;10.054;2022-07-09T02:48:55;15.98;;;3.95;;
48823;SDS011;34640;53.590;10.054;2022-07-09T02:51:28;17.25;;;3.95;;
48823;SDS011;34640;53.590;10.054;2022-07-09T02:54:03;19.50;;;3.75;;
48823;SDS011;34640;53.590;10.054;2022-07-09T02:56:36;16.40;;;3.72;;
48823;SDS011;34640;53.590;10.054;2022-07-09T02:59:09;17.00;;;3.65;;
48823;SDS011;34640;53.590;10.054;2022-07-09T03:01:47;15.77;;;3.58;;
48823;SDS011;34640;53.590;10.054;2022-07-09T03:04:20;16.48;;;4.05;;
48823;SDS011;34640;53.590;10.054;2022-07-09T03:06:54;14.35;;;3.85;;
48823;SDS011;34640;53.590;10.054;2022-07-09T03:09:46;12.45;;;3.10;;
48823;SDS011;34640;53.590;10.054;2022-07-09T03:12:38;15.32;;;3.35;;
48823;SDS011;34640;53.590;10.054;2022-07-09T03:15:30;16.02;;;3.90;;
48823;SDS011;34640;53.590;10.054;2022-07-09T03:18:22;16.40;;;4.05;;
48823;SDS011;34640;53.590;10.054;2022-07-09T03:21:13;16.90;;;3.42;;
48823;SDS011;34640;53.590;10.054;2022-07-09T03:24:05;12.35;;;3.63;;
48823;SDS011;34640;53.590;10.054;2022-07-09T03:26:59;17.80;;;3.63;;
48823;SDS011;34640;53.590;10.054;2022-07-09T03:29:51;15.10;;;3.42;;
48823;SDS011;34640;53.590;10.054;2022-07-09T03:32:42;17.60;;;3.65;;
48823;SDS011;34640;53.590;10.054;2022-07-09T03:35:33;13.88;;;3.58;;
48823;SDS011;34640;53.590;10.054;2022-07-09T03:38:25;12.05;;;3.35;;
48823;SDS011;34640;53.590;10.054;2022-07-09T03:41:17;11.50;;;3.45;;
48823;SDS011;34640;53.590;10.054;2022-07-09T03:44:09;13.55;;;3.42;;
48823;SDS011;34640;53.590;10.054;2022-07-09T03:47:00;12.82;;;3.33;;
48823;SDS011;34640;53.590;10.054;2022-07-09T03:49:52;22.85;;;4.32;;
48823;SDS011;34640;53.590;10.054;2022-07-09T03:52:43;23.05;;;5.68;;
48823;SDS011;34640;53.590;10.054;2022-07-09T03:55:35;13.27;;;3.85;;
48823;SDS011;34640;53.590;10.054;2022-07-09T03:58:26;13.52;;;4.18;;
48823;SDS011;34640;53.590;10.054;2022-07-09T04:01:19;16.58;;;4.20;;
48823;SDS011;34640;53.590;10.054;2022-07-09T04:04:10;11.38;;;3.67;;
48823;SDS011;34640;53.590;10.054;2022-07-09T04:07:02;15.45;;;3.92;;
48823;SDS011;34640;53.590;10.054;2022-07-09T04:09:54;14.32;;;4.18;;
48823;SDS011;34640;53.590;10.054;2022-07-09T04:12:46;14.90;;;4.18;;
48823;SDS011;34640;53.590;10.054;2022-07-09T04:15:37;14.35;;;4.18;;
48823;SDS011;34640;53.590;10.054;2022-07-09T04:18:30;11.55;;;3.95;;
48823;SDS011;34640;53.590;10.054;2022-07-09T04:21:21;13.80;;;3.80;;
48823;SDS011;34640;53.590;10.054;2022-07-09T04:24:12;15.18;;;4.13;;
48823;SDS011;34640;53.590;10.054;2022-07-09T04:27:05;20.38;;;5.47;;
48823;SDS011;34640;53.590;10.054;2022-07-09T04:29:56;11.30;;;3.60;;
48823;SDS011;34640;53.590;10.054;2022-07-09T04:32:48;15.70;;;3.70;;
48823;SDS011;34640;53.590;10.054;2022-07-09T04:35:41;10.77;;;3.45;;
48823;SDS011;34640;53.590;10.054;2022-07-09T04:38:32;12.60;;;3.63;;
48823;SDS011;34640;53.590;10.054;2022-07-09T04:41:24;13.82;;;3.85;;
48823;SDS011;34640;53.590;10.054;2022-07-09T04:44:16;11.68;;;3.60;;
48823;SDS011;34640;53.590;10.054;2022-07-09T04:47:08;11.00;;;3.83;;
48823;SDS011;34640;53.590;10.054;2022-07-09T04:50:00;9.32;;;3.03;;
48823;SDS011;34640;53.590;10.054;2022-07-09T04:52:52;12.40;;;3.30;;
48823;SDS011;34640;53.590;10.054;2022-07-09T04:55:44;11.10;;;3.45;;
48823;SDS011;34640;53.590;10.054;2022-07-09T04:58:35;10.98;;;3.25;;
48823;SDS011;34640;53.590;10.054;2022-07-09T05:01:28;12.68;;;3.08;;
48823;SDS011;34640;53.590;10.054;2022-07-09T05:04:20;10.30;;;3.08;;
48823;SDS011;34640;53.590;10.054;2022-07-09T05:07:11;9.68;;;3.20;;
48823;SDS011;34640;53.590;10.054;2022-07-09T05:10:05;12.18;;;3.08;;
48823;SDS011;34640;53.590;10.054;2022-07-09T05:12:57;10.32;;;3.20;;
48823;SDS011;34640;53.590;10.054;2022-07-09T05:15:48;11.88;;;3.20;;
48823;SDS011;34640;53.590;10.054;2022-07-09T05:18:39;10.88;;;3.13;;
48823;SDS011;34640;53.590;10.054;2022-07-09T05:21:31;8.50;;;2.50;;
48823;SDS011;34640;53.590;10.054;2022-07-09T05:24:22;9.98;;;2.53;;
48823;SDS011;34640;53.590;10.054;2022-07-09T05:27:15;8.77;;;2.60;;
48823;SDS011;34640;53.590;10.054;2022-07-09T05:30:07;7.43;;;2.30;;
48823;SDS011;34640;53.590;10.054;2022-07-09T05:33:07;6.15;;;2.30;;
48823;SDS011;34640;53.590;10.054;2022-07-09T05:35:59;7.30;;;2.70;;
48823;SDS011;34640;53.590;10.054;2022-07-09T05:38:50;6.57;;;2.42;;
48823;SDS011;34640;53.590;10.054;2022-07-09T05:41:42;6.50;;;2.25;;
48823;SDS011;34640;53.590;10.054;2022-07-09T05:44:35;12.40;;;3.58;;
48823;SDS011;34640;53.590;10.054;2022-07-09T05:47:26;9.55;;;2.53;;
48823;SDS011;34640;53.590;10.054;2022-07-09T05:50:18;8.35;;;2.40;;
48823;SDS011;34640;53.590;10.054;2022-07-09T05:53:10;8.23;;;2.72;;
48823;SDS011;34640;53.590;10.054;2022-07-09T05:56:01;10.15;;;2.55;;
48823;SDS011;34640;53.590;10.054;2022-07-09T05:58:52;8.10;;;2.67;;
48823;SDS011;34640;53.590;10.054;2022-07-09T06:01:45;11.18;;;2.58;;
48823;SDS011;34640;53.590;10.054;2022-07-09T06:04:37;8.48;;;2.17;;
48823;SDS011;34640;53.590;10.054;2022-07-09T06:07:28;7.72;;;2.83;;
48823;SDS011;34640;53.590;10.054;2022-07-09T06:10:20;6.22;;;2.40;;
48823;SDS011;34640;53.590;10.054;2022-07-09T06:13:11;8.15;;;2.90;;
48823;SDS011;34640;53.590;10.054;2022-07-09T06:16:02;5.47;;;2.47;;
48823;SDS011;34640;53.590;10.054;2022-07-09T06:18:56;9.15;;;2.30;;
48823;SDS011;34640;53.590;10.054;2022-07-09T06:21:48;9.70;;;2.88;;
48823;SDS011;34640;53.590;10.054;2022-07-09T06:24:39;11.52;;;2.60;;
48823;SDS011;34640;53.590;10.054;2022-07-09T06:27:30;5.65;;;2.60;;
48823;SDS011;34640;53.590;10.054;2022-07-09T06:30:21;11.18;;;3.15;;
48823;SDS011;34640;53.590;10.054;2022-07-09T06:33:13;6.95;;;2.15;;
48823;SDS011;34640;53.590;10.054;2022-07-09T06:36:06;5.50;;;2.45;;
48823;SDS011;34640;53.590;10.054;2022-07-09T06:38:58;4.60;;;2.35;;
48823;SDS011;34640;53.590;10.054;2022-07-09T06:42:06;8.05;;;2.75;;
48823;SDS011;34640;53.590;10.054;2022-07-09T06:44:58;12.43;;;2.97;;
48823;SDS011;34640;53.590;10.054;2022-07-09T06:47:50;6.20;;;2.20;;
48823;SDS011;34640;53.590;10.054;2022-07-09T06:50:42;11.52;;;2.63;;
48823;SDS011;34640;53.590;10.054;2022-07-09T06:53:35;9.52;;;2.63;;
48823;SDS011;34640;53.590;10.054;2022-07-09T06:56:27;6.13;;;2.38;;
48823;SDS011;34640;53.590;10.054;2022-07-09T06:59:18;6.45;;;2.20;;
48823;SDS011;34640;53.590;10.054;2022-07-09T07:02:12;8.48;;;2.15;;
48823;SDS011;34640;53.590;10.054;2022-07-09T07:05:04;5.03;;;1.90;;
48823;SDS011;34640;53.590;10.054;2022-07-09T07:07:57;7.32;;;2.22;;
48823;SDS011;34640;53.590;10.054;2022-07-09T07:10:49;11.65;;;2.10;;
48823;SDS011;34640;53.590;10.054;2022-07-09T07:13:41;6.93;;;2.38;;
48823;SDS011;34640;53.590;10.054;2022-07-09T07:16:32;10.65;;;2.42;;
48823;SDS011;34640;53.590;10.054;2022-07-09T07:19:24;7.40;;;1.67;;
48823;SDS011;34640;53.590;10.054;2022-07-09T07:22:15;4.60;;;1.83;;
48823;SDS011;34640;53.590;10.054;2022-07-09T07:25:08;7.65;;;2.05;;
48823;SDS011;34640;53.590;10.054;2022-07-09T07:28:02;10.32;;;1.90;;
48823;SDS011;34640;53.590;10.054;2022-07-09T07:30:54;5.55;;;1.75;;
48823;SDS011;34640;53.590;10.054;2022-07-09T07:33:45;5.57;;;1.80;;
48823;SDS011;34640;53.590;10.054;2022-07-09T07:36:37;7.93;;;2.75;;
48823;SDS011;34640;53.590;10.054;2022-07-09T07:39:28;7.05;;;2.22;;
48823;SDS011;34640;53.590;10.054;2022-07-09T07:42:20;5.88;;;2.10;;
48823;SDS011;34640;53.590;10.054;2022-07-09T07:45:12;9.73;;;2.15;;
48823;SDS011;34640;53.590;10.054;2022-07-09T07:48:05;7.03;;;2.35;;
48823;SDS011;34640;53.590;10.054;2022-07-09T07:50:56;6.38;;;2.08;;
48823;SDS011;34640;53.590;10.054;2022-07-09T07:53:49;7.50;;;1.88;;
48823;SDS011;34640;53.590;10.054;2022-07-09T07:56:40;8.60;;;2.50;;
48823;SDS011;34640;53.590;10.054;2022-07-09T07:59:32;4.93;;;2.10;;
48823;SDS011;34640;53.590;10.054;2022-07-09T08:02:25;9.75;;;2.42;;
48823;SDS011;34640;53.590;10.054;2022-07-09T08:05:16;5.75;;;2.38;;
48823;SDS011;34640;53.590;10.054;2022-07-09T08:08:08;8.32;;;1.98;;
48823;SDS011;34640;53.590;10.054;2022-07-09T08:10:59;5.72;;;1.52;;
48823;SDS011;34640;53.590;10.054;2022-07-09T08:13:52;6.05;;;1.77;;
48823;SDS011;34640;53.590;10.054;2022-07-09T08:16:43;6.05;;;2.28;;
48823;SDS011;34640;53.590;10.054;2022-07-09T08:19:36;2.58;;;1.50;;
48823;SDS011;34640;53.590;10.054;2022-07-09T08:22:27;5.95;;;1.75;;
48823;SDS011;34640;53.590;10.054;2022-07-09T08:25:19;6.55;;;2.35;;
48823;SDS011;34640;53.590;10.054;2022-07-09T08:28:11;6.82;;;1.50;;
48823;SDS011;34640;53.590;10.054;2022-07-09T08:31:02;5.57;;;1.80;;
48823;SDS011;34640;53.590;10.054;2022-07-09T08:33:55;6.07;;;1.60;;
48823;SDS011;34640;53.590;10.054;2022-07-09T08:36:47;6.93;;;2.55;;
48823;SDS011;34640;53.590;10.054;2022-07-09T08:39:38;3.78;;;1.88;;
48823;SDS011;34640;53.590;10.054;2022-07-09T08:42:30;6.78;;;2.75;;
48823;SDS011;34640;53.590;10.054;2022-07-09T08:45:21;15.27;;;3.13;;
48823;SDS011;34640;53.590;10.054;2022-07-09T08:48:17;4.65;;;1.88;;
48823;SDS011;34640;53.590;10.054;2022-07-09T08:51:09;7.97;;;1.00;;
48823;SDS011;34640;53.590;10.054;2022-07-09T08:54:02;4.63;;;1.33;;
48823;SDS011;34640;53.590;10.054;2022-07-09T08:56:54;4.85;;;1.40;;
48823;SDS011;34640;53.590;10.054;2022-07-09T08:59:46;3.20;;;1.08;;
48823;SDS011;34640;53.590;10.054;2022-07-09T09:02:37;2.47;;;0.98;;
48823;SDS011;34640;53.590;10.054;2022-07-09T09:05:29;5.38;;;1.00;;
48823;SDS011;34640;53.590;10.054;2022-07-09T09:08:20;3.38;;;1.55;;
48823;SDS011;34640;53.590;10.054;2022-07-09T09:11:15;11.20;;;3.78;;
48823;SDS011;34640;53.590;10.054;2022-07-09T09:14:17;8.98;;;2.10;;
48823;SDS011;34640;53.590;10.054;2022-07-09T09:17:10;22.45;;;3.97;;
48823;SDS011;34640;53.590;10.054;2022-07-09T09:20:10;5.43;;;1.25;;
48823;SDS011;34640;53.590;10.054;2022-07-09T09:23:02;2.17;;;0.90;;
48823;SDS011;34640;53.590;10.054;2022-07-09T09:26:06;7.50;;;0.95;;
48823;SDS011;34640;53.590;10.054;2022-07-09T09:29:00;4.45;;;1.17;;
48823;SDS011;34640;53.590;10.054;2022-07-09T09:31:53;10.13;;;2.05;;
48823;SDS011;34640;53.590;10.054;2022-07-09T09:34:48;6.85;;;1.70;;
48823;SDS011;34640;53.590;10.054;2022-07-09T09:37:42;3.55;;;0.98;;
48823;SDS011;34640;53.590;10.054;2022-07-09T09:40:34;4.97;;;1.30;;
48823;SDS011;34640;53.590;10.054;2022-07-09T09:43:26;4.80;;;1.38;;
48823;SDS011;34640;53.590;10.054;2022-07-09T09:46:22;4.45;;;1.15;;
48823;SDS011;34640;53.590;10.054;2022-07-09T09:49:14;6.32;;;1.30;;
48823;SDS011;34640;53.590;10.054;2022-07-09T09:52:06;8.55;;;1.80;;
48823;SDS011;34640;53.590;10.054;2022-07-09T09:54:59;5.03;;;1.20;;
48823;SDS011;34640;53.590;10.054;2022-07-09T09:57:52;3.15;;;0.90;;
48823;SDS011;34640;53.590;10.054;2022-07-09T10:00:44;4.72;;;1.30;;
48823;SDS011;34640;53.590;10.054;2022-07-09T10:03:37;4.95;;;0.80;;
48823;SDS011;34640;53.590;10.054;2022-07-09T10:06:32;5.80;;;1.92;;
48823;SDS011;34640;53.590;10.054;2022-07-09T10:09:24;4.28;;;0.95;;
48823;SDS011;34640;53.590;10.054;2022-07-09T10:12:24;3.60;;;1.13;;
48823;SDS011;34640;53.590;10.054;2022-07-09T10:15:20;4.80;;;1.75;;
48823;SDS011;34640;53.590;10.054;2022-07-09T10:18:16;7.57;;;1.50;;
48823;SDS011;34640;53.590;10.054;2022-07-09T10:21:10;6.15;;;1.60;;
48823;SDS011;34640;53.590;10.054;2022-07-09T10:24:02;8.70;;;2.72;;
48823;SDS011;34640;53.590;10.054;2022-07-09T10:27:02;7.00;;;1.40;;
48823;SDS011;34640;53.590;10.054;2022-07-09T10:29:55;7.43;;;1.15;;
48823;SDS011;34640;53.590;10.054;2022-07-09T10:32:47;6.40;;;1.67;;
48823;SDS011;34640;53.590;10.054;2022-07-09T10:35:53;4.10;;;1.63;;
48823;SDS011;34640;53.590;10.054;2022-07-09T10:38:52;6.97;;;1.30;;
48823;SDS011;34640;53.590;10.054;2022-07-09T10:41:46;4.30;;;1.15;;
48823;SDS011;34640;53.590;10.054;2022-07-09T10:44:37;8.90;;;1.63;;
48823;SDS011;34640;53.590;10.054;2022-07-09T10:47:36;3.75;;;1.65;;
48823;SDS011;34640;53.590;10.054;2022-07-09T10:50:28;4.85;;;1.33;;
48823;SDS011;34640;53.590;10.054;2022-07-09T10:53:27;4.22;;;1.00;;
48823;SDS011;34640;53.590;10.054;2022-07-09T10:56:21;4.97;;;1.15;;
48823;SDS011;34640;53.590;10.054;2022-07-09T10:59:15;6.07;;;2.47;;
48823;SDS011;34640;53.590;10.054;2022-07-09T11:02:16;6.40;;;1.63;;
48823;SDS011;34640;53.590;10.054;2022-07-09T11:05:08;5.90;;;1.88;;
48823;SDS011;34640;53.590;10.054;2022-07-09T11:08:01;4.05;;;1.00;;
48823;SDS011;34640;53.590;10.054;2022-07-09T11:10:54;4.82;;;1.45;;
48823;SDS011;34640;53.590;10.054;2022-07-09T11:13:49;6.00;;;1.25;;
48823;SDS011;34640;53.590;10.054;2022-07-09T11:16:42;5.65;;;0.80;;
48823;SDS011;34640;53.590;10.054;2022-07-09T11:19:44;4.07;;;1.10;;
48823;SDS011;34640;53.590;10.054;2022-07-09T11:22:36;5.28;;;1.10;;
48823;SDS011;34640;53.590;10.054;2022-07-09T11:25:27;1.90;;;0.90;;
48823;SDS011;34640;53.590;10.054;2022-07-09T11:28:20;6.53;;;1.92;;
48823;SDS011;34640;53.590;10.054;2022-07-09T11:31:13;5.10;;;1.02;;
48823;SDS011;34640;53.590;10.054;2022-07-09T11:34:05;2.80;;;0.82;;
48823;SDS011;34640;53.590;10.054;2022-07-09T11:37:03;2.40;;;0.90;;
48823;SDS011;34640;53.590;10.054;2022-07-09T11:40:00;4.32;;;1.20;;
48823;SDS011;34640;53.590;10.054;2022-07-09T11:42:51;6.13;;;1.20;;
48823;SDS011;34640;53.590;10.054;2022-07-09T11:45:51;4.10;;;1.08;;
48823;SDS011;34640;53.590;10.054;2022-07-09T11:48:49;5.07;;;0.88;;
48823;SDS011;34640;53.590;10.054;2022-07-09T11:51:41;8.25;;;1.95;;
48823;SDS011;34640;53.590;10.054;2022-07-09T11:54:34;3.45;;;1.10;;
48823;SDS011;34640;53.590;10.054;2022-07-09T11:57:25;2.78;;;0.80;;
48823;SDS011;34640;53.590;10.054;2022-07-09T12:00:20;3.72;;;0.90;;
48823;SDS011;34640;53.590;10.054;2022-07-09T12:03:12;3.95;;;0.90;;
48823;SDS011;34640;53.590;10.054;2022-07-09T12:06:16;3.58;;;0.93;;
48823;SDS011;34640;53.590;10.054;2022-07-09T12:09:08;5.78;;;0.98;;
48823;SDS011;34640;53.590;10.054;2022-07-09T12:11:59;3.75;;;1.30;;
48823;SDS011;34640;53.590;10.054;2022-07-09T12:14:51;3.75;;;1.17;;
48823;SDS011;34640;53.590;10.054;2022-07-09T12:17:44;3.85;;;0.98;;
48823;SDS011;34640;53.590;10.054;2022-07-09T12:20:36;2.15;;;0.90;;
48823;SDS011;34640;53.590;10.054;2022-07-09T12:23:28;4.57;;;1.20;;
48823;SDS011;34640;53.590;10.054;2022-07-09T12:26:20;3.15;;;0.70;;
48823;SDS011;34640;53.590;10.054;2022-07-09T12:29:12;4.20;;;0.95;;
48823;SDS011;34640;53.590;10.054;2022-07-09T12:32:03;5.30;;;0.93;;
48823;SDS011;34640;53.590;10.054;2022-07-09T12:34:55;3.55;;;1.00;;
48823;SDS011;34640;53.590;10.054;2022-07-09T12:37:47;2.13;;;1.02;;
48823;SDS011;34640;53.590;10.054;2022-07-09T12:40:40;5.65;;;1.30;;
48823;SDS011;34640;53.590;10.054;2022-07-09T12:43:32;5.95;;;0.82;;
48823;SDS011;34640;53.590;10.054;2022-07-09T12:46:24;4.70;;;1.58;;
48823;SDS011;34640;53.590;10.054;2022-07-09T12:49:16;4.95;;;1.13;;
48823;SDS011;34640;53.590;10.054;2022-07-09T12:52:07;5.43;;;1.20;;
48823;SDS011;34640;53.590;10.054;2022-07-09T12:54:59;10.43;;;1.63;;
48823;SDS011;34640;53.590;10.054;2022-07-09T12:57:53;4.60;;;1.00;;
48823;SDS011;34640;53.590;10.054;2022-07-09T13:00:45;4.53;;;1.40;;
48823;SDS011;34640;53.590;10.054;2022-07-09T13:03:36;5.38;;;1.65;;
48823;SDS011;34640;53.590;10.054;2022-07-09T13:06:48;3.63;;;0.93;;
48823;SDS011;34640;53.590;10.054;2022-07-09T13:09:39;7.82;;;1.00;;
48823;SDS011;34640;53.590;10.054;2022-07-09T13:12:31;5.05;;;1.05;;
48823;SDS011;34640;53.590;10.054;2022-07-09T13:15:24;7.10;;;1.38;;
48823;SDS011;34640;53.590;10.054;2022-07-09T13:18:16;7.47;;;1.30;;
48823;SDS011;34640;53.590;10.054;2022-07-09T13:21:08;6.47;;;1.10;;
48823;SDS011;34640;53.590;10.054;2022-07-09T13:24:00;8.13;;;1.15;;
48823;SDS011;34640;53.590;10.054;2022-07-09T13:26:52;6.75;;;1.40;;
48823;SDS011;34640;53.590;10.054;2022-07-09T13:29:43;6.97;;;1.50;;
48823;SDS011;34640;53.590;10.054;2022-07-09T13:32:36;7.88;;;2.40;;
48823;SDS011;34640;53.590;10.054;2022-07-09T13:35:28;3.58;;;0.80;;
48823;SDS011;34640;53.590;10.054;2022-07-09T13:38:19;5.32;;;1.30;;
48823;SDS011;34640;53.590;10.054;2022-07-09T13:41:11;5.00;;;1.25;;
48823;SDS011;34640;53.590;10.054;2022-07-09T13:44:02;8.68;;;1.73;;
48823;SDS011;34640;53.590;10.054;2022-07-09T13:46:54;3.40;;;0.80;;
48823;SDS011;34640;53.590;10.054;2022-07-09T13:49:47;3.80;;;0.88;;
48823;SDS011;34640;53.590;10.054;2022-07-09T13:52:38;6.05;;;1.00;;
48823;SDS011;34640;53.590;10.054;2022-07-09T13:55:30;2.83;;;0.85;;
48823;SDS011;34640;53.590;10.054;2022-07-09T13:58:21;6.43;;;1.30;;
48823;SDS011;34640;53.590;10.054;2022-07-09T14:01:13;3.58;;;1.10;;
48823;SDS011;34640;53.590;10.054;2022-07-09T14:04:05;6.70;;;1.17;;
48823;SDS011;34640;53.590;10.054;2022-07-09T14:06:58;10.43;;;0.90;;
48823;SDS011;34640;53.590;10.054;2022-07-09T14:09:50;7.65;;;0.93;;
48823;SDS011;34640;53.590;10.054;2022-07-09T14:12:41;5.38;;;0.90;;
48823;SDS011;34640;53.590;10.054;2022-07-09T14:15:33;5.10;;;1.00;;
48823;SDS011;34640;53.590;10.054;2022-07-09T14:18:24;6.32;;;1.23;;
48823;SDS011;34640;53.590;10.054;2022-07-09T14:21:16;7.70;;;1.33;;
48823;SDS011;34640;53.590;10.054;2022-07-09T14:24:08;7.25;;;1.00;;
48823;SDS011;34640;53.590;10.054;2022-07-09T14:27:00;4.80;;;1.10;;
48823;SDS011;34640;53.590;10.054;2022-07-09T14:29:52;9.32;;;1.52;;
48823;SDS011;34640;53.590;10.054;2022-07-09T14:32:44;8.85;;;1.67;;
48823;SDS011;34640;53.590;10.054;2022-07-09T14:35:35;7.40;;;1.42;;
48823;SDS011;34640;53.590;10.054;2022-07-09T14:38:27;9.32;;;1.23;;
48823;SDS011;34640;53.590;10.054;2022-07-09T14:41:19;7.72;;;1.10;;
48823;SDS011;34640;53.590;10.054;2022-07-09T14:44:11;9.15;;;2.45;;
48823;SDS011;34640;53.590;10.054;2022-07-09T14:47:02;9.52;;;1.45;;
48823;SDS011;34640;53.590;10.054;2022-07-09T14:49:54;6.55;;;1.30;;
48823;SDS011;34640;53.590;10.054;2022-07-09T14:52:46;5.90;;;1.33;;
48823;SDS011;34640;53.590;10.054;2022-07-09T14:55:37;9.40;;;1.27;;
48823;SDS011;34640;53.590;10.054;2022-07-09T14:58:29;11.20;;;1.35;;
48823;SDS011;34640;53.590;10.054;2022-07-09T15:01:21;8.27;;;1.85;;
48823;SDS011;34640;53.590;10.054;2022-07-09T15:04:13;9.93;;;1.63;;
48823;SDS011;34640;53.590;10.054;2022-07-09T15:07:05;10.43;;;1.90;;
48823;SDS011;34640;53.590;10.054;2022-07-09T15:09:56;11.55;;;1.77;;
48823;SDS011;34640;53.590;10.054;2022-07-09T15:12:48;11.23;;;2.10;;
48823;SDS011;34640;53.590;10.054;2022-07-09T15:15:40;5.38;;;1.10;;
48823;SDS011;34640;53.590;10.054;2022-07-09T15:18:33;6.53;;;1.73;;
48823;SDS011;34640;53.590;10.054;2022-07-09T15:21:25;15.48;;;1.75;;
48823;SDS011;34640;53.590;10.054;2022-07-09T15:24:19;7.43;;;1.20;;
48823;SDS011;34640;53.590;10.054;2022-07-09T15:27:10;4.93;;;0.90;;
48823;SDS011;34640;53.590;10.054;2022-07-09T15:30:02;4.90;;;1.35;;
48823;SDS011;34640;53.590;10.054;2022-07-09T15:32:56;8.52;;;0.80;;
48823;SDS011;34640;53.590;10.054;2022-07-09T15:35:47;3.63;;;0.80;;
48823;SDS011;34640;53.590;10.054;2022-07-09T15:38:39;3.22;;;0.98;;
48823;SDS011;34640;53.590;10.054;2022-07-09T15:41:30;7.40;;;1.10;;
48823;SDS011;34640;53.590;10.054;2022-07-09T15:44:29;4.65;;;0.90;;
48823;SDS011;34640;53.590;10.054;2022-07-09T15:47:20;7.82;;;0.93;;
48823;SDS011;34640;53.590;10.054;2022-07-09T15:50:13;6.10;;;1.10;;
48823;SDS011;34640;53.590;10.054;2022-07-09T15:53:04;8.20;;;1.50;;
48823;SDS011;34640;53.590;10.054;2022-07-09T15:55:56;6.70;;;1.00;;
48823;SDS011;34640;53.590;10.054;2022-07-09T15:58:48;8.40;;;1.38;;
48823;SDS011;34640;53.590;10.054;2022-07-09T16:01:39;7.47;;;1.27;;
48823;SDS011;34640;53.590;10.054;2022-07-09T16:04:31;7.82;;;1.17;;
48823;SDS011;34640;53.590;10.054;2022-07-09T16:07:23;6.30;;;1.05;;
48823;SDS011;34640;53.590;10.054;2022-07-09T16:10:14;9.65;;;1.83;;
48823;SDS011;34640;53.590;10.054;2022-07-09T16:13:06;11.82;;;1.95;;
48823;SDS011;34640;53.590;10.054;2022-07-09T16:15:56;4.78;;;1.00;;
48823;SDS011;34640;53.590;10.054;2022-07-09T16:18:47;6.63;;;1.38;;
48823;SDS011;34640;53.590;10.054;2022-07-09T16:21:39;7.03;;;1.23;;
48823;SDS011;34640;53.590;10.054;2022-07-09T16:24:32;8.20;;;1.35;;
48823;SDS011;34640;53.590;10.054;2022-07-09T16:27:24;6.43;;;1.23;;
48823;SDS011;34640;53.590;10.054;2022-07-09T16:30:16;10.20;;;1.90;;
48823;SDS011;34640;53.590;10.054;2022-07-09T16:33:08;6.20;;;1.65;;
48823;SDS011;34640;53.590;10.054;2022-07-09T16:35:59;10.15;;;2.20;;